createdAt,value
2023-05-06T00:01:25.405Z,8.60
2023-05-06T00:03:52.680Z,19.10
2023-05-06T00:06:19.974Z,16.67
2023-05-06T00:08:46.969Z,14.63
2023-05-06T00:11:13.983Z,12.43
2023-05-06T00:13:42.198Z,18.83
2023-05-06T00:16:09.479Z,8.00
2023-05-06T00:18:36.634Z,14.33
2023-05-06T00:21:03.638Z,14.87
2023-05-06T00:23:30.889Z,16.63
2023-05-06T00:25:57.995Z,29.93
2023-05-06T00:28:24.967Z,21.27
2023-05-06T00:30:51.948Z,27.30
2023-05-06T00:33:18.918Z,38.40
2023-05-06T00:35:46.023Z,10.63
2023-05-06T00:38:15.401Z,25.00
2023-05-06T00:40:42.529Z,24.00
2023-05-06T00:43:10.098Z,9.07
2023-05-06T00:45:38.921Z,12.40
2023-05-06T00:48:09.831Z,15.73
2023-05-06T00:50:39.590Z,15.97
2023-05-06T00:53:09.664Z,8.80
2023-05-06T00:55:38.245Z,18.30
2023-05-06T00:58:05.788Z,14.67
2023-05-06T01:00:32.871Z,15.10
2023-05-06T01:02:59.856Z,21.07
2023-05-06T01:05:33.660Z,10.40
2023-05-06T01:08:30.213Z,12.43
2023-05-06T01:11:12.678Z,10.73
2023-05-06T01:14:06.719Z,20.40
2023-05-06T01:16:40.019Z,9.03
2023-05-06T01:19:10.064Z,10.30
2023-05-06T01:21:41.558Z,9.20
2023-05-06T01:24:08.441Z,17.57
2023-05-06T01:26:35.819Z,8.97
2023-05-06T01:29:03.976Z,8.80
2023-05-06T01:31:38.929Z,13.00
2023-05-06T01:34:14.829Z,8.53
2023-05-06T01:36:46.334Z,11.13
2023-05-06T01:39:21.031Z,9.33
2023-05-06T01:41:50.181Z,19.47
2023-05-06T01:44:17.883Z,10.80
2023-05-06T01:46:46.286Z,15.33
2023-05-06T01:49:16.989Z,11.67
2023-05-06T01:51:51.402Z,28.17
2023-05-06T01:54:19.000Z,10.90
2023-05-06T01:56:46.553Z,9.37
2023-05-06T01:59:13.552Z,11.70
2023-05-06T02:01:40.712Z,15.57
2023-05-06T02:04:08.008Z,13.40
2023-05-06T02:06:35.090Z,10.87
2023-05-06T02:09:02.167Z,19.03
2023-05-06T02:11:29.352Z,8.17
2023-05-06T02:13:56.549Z,18.73
2023-05-06T02:16:23.743Z,9.90
2023-05-06T02:18:51.364Z,9.90
2023-05-06T02:21:18.444Z,14.93
2023-05-06T02:23:45.454Z,16.33
2023-05-06T02:26:12.634Z,15.50
2023-05-06T02:28:39.865Z,10.23
2023-05-06T02:31:07.016Z,17.77
2023-05-06T02:33:34.051Z,15.70
2023-05-06T02:36:01.060Z,29.43
2023-05-06T02:38:28.110Z,19.63
2023-05-06T02:40:55.129Z,13.13
2023-05-06T02:43:23.242Z,10.40
2023-05-06T02:45:50.527Z,13.10
2023-05-06T02:48:17.602Z,9.60
2023-05-06T02:50:44.953Z,10.83
2023-05-06T02:53:13.353Z,16.90
2023-05-06T02:55:40.652Z,19.37
2023-05-06T02:58:07.733Z,8.93
2023-05-06T03:00:34.962Z,16.37
2023-05-06T03:03:02.259Z,13.20
2023-05-06T03:05:29.389Z,9.20
2023-05-06T03:07:56.384Z,16.30
2023-05-06T03:10:23.371Z,11.70
2023-05-06T03:12:50.661Z,8.93
2023-05-06T03:15:17.917Z,11.83
2023-05-06T03:17:46.545Z,14.27
2023-05-06T03:20:13.886Z,9.80
2023-05-06T03:22:42.533Z,14.00
2023-05-06T03:25:09.982Z,9.83
2023-05-06T03:27:37.216Z,9.67
2023-05-06T03:30:04.822Z,9.17
2023-05-06T03:32:31.903Z,9.60
2023-05-06T03:34:58.986Z,9.50
2023-05-06T03:37:26.180Z,11.00
2023-05-06T03:39:53.144Z,9.57
2023-05-06T03:42:20.386Z,12.00
2023-05-06T03:44:47.407Z,14.17
2023-05-06T03:47:14.563Z,14.53
2023-05-06T03:49:41.418Z,16.33
2023-05-06T03:52:08.494Z,9.87
2023-05-06T03:54:35.648Z,10.40
2023-05-06T03:57:03.101Z,12.53
2023-05-06T03:59:30.036Z,9.43
2023-05-06T04:01:57.146Z,13.20
2023-05-06T04:04:25.316Z,16.93
2023-05-06T04:06:52.492Z,12.33
2023-05-06T04:09:19.538Z,14.53
2023-05-06T04:11:46.583Z,10.10
2023-05-06T04:14:13.503Z,11.47
2023-05-06T04:16:40.752Z,9.90
2023-05-06T04:19:08.336Z,9.83
2023-05-06T04:21:35.408Z,11.50
2023-05-06T04:24:02.889Z,24.27
2023-05-06T04:26:29.886Z,17.17
2023-05-06T04:28:57.044Z,13.50
2023-05-06T04:31:24.719Z,14.67
2023-05-06T04:33:53.622Z,12.03
2023-05-06T04:36:20.942Z,8.23
2023-05-06T04:38:47.960Z,13.27
2023-05-06T04:41:15.805Z,13.63
2023-05-06T04:43:43.211Z,12.00
2023-05-06T04:46:10.928Z,21.73
2023-05-06T04:48:38.754Z,13.53
2023-05-06T04:51:05.749Z,10.13
2023-05-06T04:53:33.093Z,12.73
2023-05-06T04:56:00.147Z,11.00
2023-05-06T04:58:27.315Z,10.70
2023-05-06T05:00:54.562Z,8.13
2023-05-06T05:03:21.672Z,12.90
2023-05-06T05:05:48.700Z,11.53
2023-05-06T05:08:15.675Z,10.37
2023-05-06T05:10:45.979Z,11.77
2023-05-06T05:13:14.213Z,11.33
2023-05-06T05:15:41.339Z,10.00
2023-05-06T05:18:08.876Z,9.13
2023-05-06T05:20:36.363Z,15.07
2023-05-06T05:23:03.874Z,13.00
2023-05-06T05:25:31.256Z,10.17
2023-05-06T05:27:58.392Z,10.50
2023-05-06T05:30:25.719Z,12.90
2023-05-06T05:32:53.049Z,15.33
2023-05-06T05:35:20.837Z,19.47
2023-05-06T05:37:47.877Z,9.30
2023-05-06T05:40:14.993Z,11.43
2023-05-06T05:42:42.022Z,9.97
2023-05-06T05:45:09.774Z,9.57
2023-05-06T05:47:36.937Z,12.93
2023-05-06T05:50:04.612Z,9.37
2023-05-06T05:52:31.791Z,9.87
2023-05-06T05:54:58.893Z,9.23
2023-05-06T05:57:28.252Z,12.43
2023-05-06T05:59:55.289Z,10.07
2023-05-06T06:02:22.330Z,9.37
2023-05-06T06:04:49.278Z,12.03
2023-05-06T06:07:16.558Z,16.10
2023-05-06T06:09:46.763Z,11.13
2023-05-06T06:12:13.928Z,9.60
2023-05-06T06:14:41.008Z,13.30
2023-05-06T06:17:08.121Z,9.63
2023-05-06T06:19:35.271Z,9.43
2023-05-06T06:22:02.255Z,11.90
2023-05-06T06:24:29.338Z,9.03
2023-05-06T06:26:56.632Z,8.80
2023-05-06T06:29:23.762Z,13.60
2023-05-06T06:31:50.983Z,9.17
2023-05-06T06:34:18.107Z,14.40
2023-05-06T06:36:45.718Z,9.87
2023-05-06T06:39:13.435Z,10.10
2023-05-06T06:41:40.503Z,13.20
2023-05-06T06:44:07.938Z,10.90
2023-05-06T06:46:35.038Z,9.60
2023-05-06T06:49:02.165Z,8.40
2023-05-06T06:51:29.391Z,10.67
2023-05-06T06:53:56.944Z,12.20
2023-05-06T06:56:23.953Z,10.13
2023-05-06T06:58:53.020Z,9.20
2023-05-06T07:01:20.582Z,14.90
2023-05-06T07:03:47.709Z,8.50
2023-05-06T07:06:14.848Z,9.47
2023-05-06T07:08:41.948Z,12.10
2023-05-06T07:11:09.122Z,13.87
2023-05-06T07:13:37.129Z,11.47
2023-05-06T07:16:04.630Z,10.33
2023-05-06T07:18:31.866Z,7.73
2023-05-06T07:20:58.988Z,11.60
2023-05-06T07:23:25.906Z,10.87
2023-05-06T07:25:53.081Z,14.60
2023-05-06T07:28:20.359Z,10.93
2023-05-06T07:30:51.367Z,13.73
2023-05-06T07:33:18.752Z,9.93
2023-05-06T07:35:46.336Z,12.00
2023-05-06T07:38:13.554Z,14.70
2023-05-06T07:40:41.180Z,9.83
2023-05-06T07:43:08.922Z,12.53
2023-05-06T07:45:35.962Z,9.50
2023-05-06T07:48:03.201Z,13.43
2023-05-06T07:50:30.493Z,10.07
2023-05-06T07:52:58.332Z,8.97
2023-05-06T07:55:25.305Z,9.60
2023-05-06T07:57:52.524Z,10.10
2023-05-06T08:00:19.752Z,15.60
2023-05-06T08:02:47.419Z,15.40
2023-05-06T08:05:14.987Z,24.13
2023-05-06T08:07:42.385Z,9.53
2023-05-06T08:10:10.452Z,10.77
2023-05-06T08:12:38.204Z,10.13
2023-05-06T08:15:05.962Z,14.03
2023-05-06T08:17:33.040Z,13.03
2023-05-06T08:20:00.130Z,13.43
2023-05-06T08:22:27.036Z,12.40
2023-05-06T08:24:54.760Z,11.20
2023-05-06T08:27:21.712Z,12.47
2023-05-06T08:29:48.735Z,10.53
2023-05-06T08:32:15.808Z,11.47
2023-05-06T08:34:42.761Z,12.50
2023-05-06T08:37:10.453Z,14.70
2023-05-06T08:39:37.731Z,12.23
2023-05-06T08:42:05.971Z,14.77
2023-05-06T08:44:33.646Z,17.93
2023-05-06T08:47:00.676Z,13.90
2023-05-06T08:49:28.111Z,16.93
2023-05-06T08:51:55.406Z,13.33
2023-05-06T08:54:25.481Z,21.20
2023-05-06T08:56:54.752Z,12.63
2023-05-06T08:59:25.471Z,12.80
2023-05-06T09:01:53.404Z,16.67
2023-05-06T09:04:20.435Z,12.17
2023-05-06T09:06:47.404Z,12.90
2023-05-06T09:09:14.990Z,12.07
2023-05-06T09:11:42.033Z,15.33
2023-05-06T09:14:15.595Z,13.27
2023-05-06T09:16:49.975Z,19.17
2023-05-06T09:19:19.271Z,13.20
2023-05-06T09:21:49.070Z,12.63
2023-05-06T09:24:17.003Z,26.63
2023-05-06T09:26:46.145Z,12.17
2023-05-06T09:29:13.959Z,14.30
2023-05-06T09:31:45.654Z,16.27
2023-05-06T09:34:14.254Z,12.27
2023-05-06T09:36:41.384Z,18.40
2023-05-06T09:39:09.766Z,10.73
2023-05-06T09:41:36.817Z,10.47
2023-05-06T09:44:04.927Z,11.57
2023-05-06T09:46:33.077Z,10.97
2023-05-06T09:49:00.499Z,11.63
2023-05-06T09:51:30.964Z,9.67
2023-05-06T09:53:59.363Z,10.57
2023-05-06T09:56:27.090Z,10.93
2023-05-06T09:58:55.885Z,11.00
2023-05-06T10:01:35.464Z,10.00
2023-05-06T10:04:10.218Z,12.60
2023-05-06T10:06:40.937Z,9.83
2023-05-06T10:09:10.972Z,10.90
2023-05-06T10:11:38.849Z,11.50
2023-05-06T10:14:06.847Z,9.43
2023-05-06T10:16:36.194Z,8.37
2023-05-06T10:19:05.317Z,9.10
2023-05-06T10:21:36.385Z,8.57
2023-05-06T10:24:13.601Z,8.80
2023-05-06T10:26:42.745Z,7.57
2023-05-06T10:29:11.428Z,9.23
2023-05-06T10:31:49.543Z,7.77
2023-05-06T10:34:20.014Z,8.00
2023-05-06T10:36:51.994Z,9.97
2023-05-06T10:39:20.161Z,8.53
2023-05-06T10:41:48.476Z,9.30
2023-05-06T10:44:15.474Z,8.80
2023-05-06T10:47:00.923Z,11.70
2023-05-06T10:49:29.093Z,9.57
2023-05-06T10:52:14.944Z,9.13
2023-05-06T10:54:50.938Z,9.27
2023-05-06T10:57:18.502Z,8.17
2023-05-06T10:59:49.237Z,7.87
2023-05-06T11:02:20.305Z,8.57
2023-05-06T11:04:53.013Z,8.90
2023-05-06T11:07:24.324Z,9.40
2023-05-06T11:09:59.142Z,8.00
2023-05-06T11:12:47.642Z,8.27
2023-05-06T11:15:47.330Z,7.87
2023-05-06T11:18:26.953Z,8.33
2023-05-06T11:21:02.981Z,8.30
2023-05-06T11:23:42.464Z,8.43
2023-05-06T11:26:11.166Z,8.03
2023-05-06T11:28:39.666Z,8.50
2023-05-06T11:31:07.940Z,7.80
2023-05-06T11:33:37.551Z,6.57
2023-05-06T11:36:05.388Z,6.30
2023-05-06T11:38:51.264Z,6.10
2023-05-06T11:41:19.259Z,6.17
2023-05-06T11:43:50.026Z,5.37
2023-05-06T11:46:19.832Z,6.13
2023-05-06T11:48:47.025Z,4.83
2023-05-06T11:51:14.234Z,4.67
2023-05-06T11:53:41.279Z,5.10
2023-05-06T11:56:08.869Z,5.20
2023-05-06T11:58:35.849Z,5.77
2023-05-06T12:01:05.001Z,5.30
2023-05-06T12:03:33.761Z,4.90
2023-05-06T12:06:01.427Z,5.30
2023-05-06T12:08:36.185Z,5.40
2023-05-06T12:11:06.516Z,5.50
2023-05-06T12:13:36.756Z,5.03
2023-05-06T12:16:05.474Z,5.03
2023-05-06T12:18:33.978Z,4.67
2023-05-06T12:21:04.363Z,4.90
2023-05-06T12:23:31.739Z,4.83
2023-05-06T12:26:04.961Z,5.20
2023-05-06T12:28:35.439Z,5.03
2023-05-06T12:31:22.217Z,6.67
2023-05-06T12:33:50.569Z,4.40
2023-05-06T12:36:19.405Z,4.43
2023-05-06T12:38:54.177Z,5.07
2023-05-06T12:41:22.338Z,6.10
2023-05-06T12:43:49.618Z,4.73
2023-05-06T12:46:17.499Z,4.33
2023-05-06T12:49:02.229Z,5.20
2023-05-06T12:51:30.910Z,6.30
2023-05-06T12:53:58.048Z,5.07
2023-05-06T12:56:25.265Z,4.57
2023-05-06T12:59:03.011Z,4.37
2023-05-06T13:01:30.168Z,4.87
2023-05-06T13:03:58.364Z,4.10
2023-05-06T13:06:25.466Z,4.30
2023-05-06T13:08:52.410Z,4.47
2023-05-06T13:11:19.400Z,4.50
2023-05-06T13:13:46.540Z,4.60
2023-05-06T13:16:14.037Z,4.70
2023-05-06T13:18:41.396Z,4.40
2023-05-06T13:21:08.445Z,5.23
2023-05-06T13:23:36.851Z,5.47
2023-05-06T13:26:06.177Z,11.40
2023-05-06T13:28:36.589Z,5.03
2023-05-06T13:31:04.026Z,4.60
2023-05-06T13:33:31.314Z,11.30
2023-05-06T13:35:58.275Z,3.30
2023-05-06T13:38:26.166Z,4.10
2023-05-06T13:40:54.303Z,5.10
2023-05-06T13:43:24.560Z,3.50
2023-05-06T13:45:53.056Z,3.77
2023-05-06T13:48:20.022Z,4.37
2023-05-06T13:50:47.577Z,4.83
2023-05-06T13:53:17.637Z,3.90
2023-05-06T13:55:44.562Z,4.40
2023-05-06T13:58:11.612Z,4.80
2023-05-06T14:00:38.943Z,3.67
2023-05-06T14:03:06.117Z,3.90
2023-05-06T14:05:33.383Z,4.80
2023-05-06T14:08:00.388Z,3.67
2023-05-06T14:10:27.318Z,2.80
2023-05-06T14:12:58.408Z,3.53
2023-05-06T14:15:48.333Z,3.73
2023-05-06T14:18:23.268Z,5.47
2023-05-06T14:21:05.429Z,3.27
2023-05-06T14:23:44.197Z,6.87
2023-05-06T14:26:29.444Z,7.00
2023-05-06T14:29:10.402Z,4.30
2023-05-06T14:31:46.602Z,4.10
2023-05-06T14:34:20.868Z,3.73
2023-05-06T14:36:54.519Z,3.10
2023-05-06T14:40:02.360Z,3.40
2023-05-06T14:42:50.073Z,3.30
2023-05-06T14:45:31.682Z,3.20
2023-05-06T14:48:31.903Z,3.90
2023-05-06T14:51:09.817Z,3.50
2023-05-06T14:57:44.996Z,4.00
2023-05-06T15:00:40.756Z,3.20
2023-05-06T15:03:21.151Z,3.03
2023-05-06T15:06:12.121Z,3.30
2023-05-06T15:08:55.355Z,2.90
2023-05-06T15:12:02.272Z,5.53
2023-05-06T15:14:43.485Z,3.13
2023-05-06T15:17:27.782Z,3.20
2023-05-06T15:20:16.515Z,4.63
2023-05-06T15:23:17.808Z,4.00
2023-05-06T15:25:59.615Z,3.47
2023-05-06T15:29:19.413Z,3.00
2023-05-06T15:31:53.894Z,4.23
2023-05-06T15:34:52.277Z,3.80
2023-05-06T15:37:35.117Z,4.63
2023-05-06T15:43:06.395Z,4.00
2023-05-06T15:45:50.910Z,3.97
2023-05-06T15:48:51.948Z,3.93
2023-05-06T15:51:54.572Z,4.13
2023-05-06T15:54:37.832Z,3.73
2023-05-06T15:57:20.683Z,3.50
2023-05-06T16:00:16.688Z,4.30
2023-05-06T16:02:54.761Z,3.87
2023-05-06T16:05:45.063Z,4.13
2023-05-06T16:08:29.827Z,3.77
2023-05-06T16:11:15.970Z,4.07
2023-05-06T16:14:02.629Z,5.97
2023-05-06T16:16:48.000Z,4.10
2023-05-06T16:19:30.625Z,4.07
2023-05-06T16:22:34.765Z,4.77
2023-05-06T16:25:41.774Z,4.63
2023-05-06T16:28:27.724Z,4.50
2023-05-06T16:31:16.121Z,4.67
2023-05-06T16:33:53.151Z,5.07
2023-05-06T16:36:29.113Z,4.23
2023-05-06T16:39:11.945Z,4.40
2023-05-06T16:41:54.729Z,5.20
2023-05-06T16:44:24.700Z,4.57
2023-05-06T16:46:59.061Z,4.33
2023-05-06T16:49:43.045Z,4.97
2023-05-06T16:52:22.108Z,4.97
2023-05-06T16:55:01.067Z,4.97
2023-05-06T16:57:34.677Z,4.73
2023-05-06T17:00:24.586Z,6.13
2023-05-06T17:05:45.865Z,4.57
2023-05-06T17:08:17.553Z,4.70
2023-05-06T17:10:51.467Z,4.20
2023-05-06T17:13:19.747Z,5.03
2023-05-06T17:16:06.662Z,4.93
2023-05-06T17:19:04.366Z,5.03
2023-05-06T17:24:42.829Z,5.53
2023-05-06T17:26:44.869Z,5.20
2023-05-06T17:28:06.088Z,5.20
2023-05-06T17:34:11.664Z,5.70
2023-05-06T17:36:39.737Z,4.87
2023-05-06T17:39:10.158Z,5.50
2023-05-06T17:41:41.313Z,5.90
2023-05-06T17:44:09.016Z,6.77
2023-05-06T17:46:37.781Z,6.27
2023-05-06T17:49:05.684Z,5.00
2023-05-06T17:51:46.867Z,5.30
2023-05-06T17:54:39.380Z,6.63
2023-05-06T18:00:27.184Z,5.73
2023-05-06T18:02:56.069Z,5.90
2023-05-06T18:05:26.024Z,5.43
2023-05-06T18:08:02.971Z,5.90
2023-05-06T18:10:31.352Z,6.10
2023-05-06T18:13:07.680Z,5.40
2023-05-06T18:15:38.331Z,6.27
2023-05-06T18:18:06.932Z,5.47
2023-05-06T18:20:40.938Z,5.90
2023-05-06T18:23:24.854Z,11.10
2023-05-06T18:26:08.617Z,6.50
2023-05-06T18:29:30.863Z,6.93
2023-05-06T18:32:05.057Z,6.97
2023-05-06T18:34:38.516Z,7.10
2023-05-06T18:37:12.377Z,6.23
2023-05-06T18:43:16.652Z,7.67
2023-05-06T18:48:45.838Z,8.13
2023-05-06T18:51:18.055Z,8.75
2023-05-06T18:53:45.989Z,7.70
2023-05-06T18:56:18.373Z,11.77
2023-05-06T18:58:49.452Z,8.57
2023-05-06T19:04:50.904Z,9.10
2023-05-06T19:26:22.689Z,11.47
2023-05-06T19:28:47.501Z,11.50
2023-05-06T19:31:15.520Z,11.50
2023-05-06T19:34:04.622Z,12.83
2023-05-06T19:36:38.455Z,12.17
2023-05-06T19:39:31.561Z,12.23
2023-05-06T19:43:55.193Z,15.60
2023-05-06T19:46:55.777Z,12.03
2023-05-06T19:57:25.977Z,12.10
2023-05-06T20:12:00.835Z,15.83
2023-05-06T20:14:29.033Z,13.80
2023-05-06T20:16:58.149Z,13.33
2023-05-06T20:19:31.542Z,26.43
2023-05-06T20:22:00.620Z,16.97
2023-05-06T20:24:29.573Z,15.13
2023-05-06T20:26:58.954Z,17.50
2023-05-06T20:29:26.584Z,15.57
2023-05-06T20:31:54.031Z,17.83
2023-05-06T20:34:21.901Z,13.77
2023-05-06T20:36:49.983Z,19.10
2023-05-06T20:39:17.495Z,17.43
2023-05-06T20:41:44.750Z,16.70
2023-05-06T20:44:12.018Z,20.00
2023-05-06T20:46:39.257Z,18.47
2023-05-06T20:49:08.010Z,17.17
2023-05-06T20:51:35.336Z,19.20
2023-05-06T20:54:07.339Z,17.03
2023-05-06T20:56:34.254Z,22.40
2023-05-06T20:59:04.237Z,19.40
2023-05-06T21:01:31.282Z,14.77
2023-05-06T21:03:58.871Z,16.30
2023-05-06T21:06:26.923Z,16.93
2023-05-06T21:08:53.860Z,18.77
2023-05-06T21:14:12.728Z,18.37
2023-05-06T21:16:40.921Z,17.00
2023-05-06T21:19:07.977Z,23.13
2023-05-06T21:21:35.005Z,20.83
2023-05-06T21:24:01.963Z,21.00
2023-05-06T21:26:30.823Z,23.53
2023-05-06T21:28:57.710Z,24.03
2023-05-06T21:31:26.483Z,19.40
2023-05-06T21:33:58.649Z,17.53
2023-05-06T21:36:26.122Z,23.80
2023-05-06T21:39:09.530Z,22.70
2023-05-06T21:41:36.863Z,24.20
2023-05-06T21:44:04.757Z,20.97
2023-05-06T21:46:32.544Z,20.80
2023-05-06T21:49:00.350Z,19.60
2023-05-06T21:51:29.228Z,21.00
2023-05-06T21:53:56.218Z,19.20
2023-05-06T21:56:24.145Z,20.90
2023-05-06T21:58:52.754Z,22.53
2023-05-06T22:01:19.843Z,30.43
2023-05-06T22:03:47.953Z,22.07
2023-05-06T22:06:15.620Z,16.37
2023-05-06T22:08:42.759Z,16.63
2023-05-06T22:11:09.709Z,16.33
2023-05-06T22:13:36.729Z,19.67
2023-05-06T22:16:06.486Z,16.63
2023-05-06T22:18:33.365Z,15.87
2023-05-06T22:21:00.315Z,16.90
2023-05-06T22:23:28.097Z,14.23
2023-05-06T22:25:55.025Z,21.30
2023-05-06T22:28:21.953Z,13.70
2023-05-06T22:30:48.963Z,18.47
2023-05-06T22:33:15.952Z,16.13
2023-05-06T22:35:43.819Z,17.67
2023-05-06T22:38:10.990Z,14.87
2023-05-06T22:40:38.054Z,33.07
2023-05-06T22:43:05.108Z,16.33
2023-05-06T22:45:32.083Z,21.87
2023-05-06T22:47:59.052Z,19.90
2023-05-06T22:50:26.099Z,18.07
2023-05-06T22:52:53.102Z,17.00
2023-05-06T22:55:20.478Z,14.43
2023-05-06T22:57:50.114Z,16.17
2023-05-06T23:00:17.632Z,13.87
2023-05-06T23:02:44.738Z,17.17
2023-05-06T23:05:12.661Z,16.37
2023-05-06T23:07:39.957Z,17.40
2023-05-06T23:10:07.810Z,17.93
2023-05-06T23:12:35.355Z,14.70
2023-05-06T23:15:02.622Z,16.67
2023-05-06T23:17:29.713Z,15.80
2023-05-06T23:19:59.010Z,15.47
2023-05-06T23:22:26.944Z,16.90
2023-05-06T23:24:53.931Z,13.60
2023-05-06T23:27:21.574Z,17.33
2023-05-06T23:29:48.538Z,13.77
2023-05-06T23:32:21.278Z,13.63
2023-05-06T23:34:49.265Z,18.57
2023-05-06T23:37:17.695Z,16.60
2023-05-06T23:39:46.126Z,12.47
2023-05-06T23:42:13.089Z,12.70
2023-05-06T23:44:40.064Z,16.03
2023-05-06T23:47:07.156Z,13.30
2023-05-06T23:49:36.252Z,20.20
2023-05-06T23:52:03.833Z,15.70
2023-05-06T23:54:30.845Z,16.53
2023-05-06T23:56:58.401Z,15.77
2023-05-06T23:59:25.511Z,16.50
